sensor_id;sensor_type;location;lat;lon;timestamp;pressure;altitude;pressure_sealevel;temperature
70668;BMP280;58242;51.250;-1.118;2024-01-15T00:00:14;99758.06;;;9.35
70668;BMP280;58242;51.250;-1.118;2024-01-15T00:02:39;99758.13;;;9.26
70668;BMP280;58242;51.250;-1.118;2024-01-15T00:05:05;99753.28;;;9.20
70668;BMP280;58242;51.250;-1.118;2024-01-15T00:07:30;99754.88;;;9.13
70668;BMP280;58242;51.250;-1.118;2024-01-15T00:09:55;99750.06;;;9.06
70668;BMP280;58242;51.250;-1.118;2024-01-15T00:12:21;99758.56;;;9.00
70668;BMP280;58242;51.250;-1.118;2024-01-15T00:14:46;99755.28;;;8.95
70668;BMP280;58242;51.250;-1.118;2024-01-15T00:17:11;99752.00;;;8.89
70668;BMP280;58242;51.250;-1.118;2024-01-15T00:19:38;99752.97;;;8.85
70668;BMP280;58242;51.250;-1.118;2024-01-15T00:22:03;99741.69;;;8.80
70668;BMP280;58242;51.250;-1.118;2024-01-15T00:24:29;99743.13;;;8.77
70668;BMP280;58242;51.250;-1.118;2024-01-15T00:26:54;99739.19;;;8.75
70668;BMP280;58242;51.250;-1.118;2024-01-15T00:29:20;99745.16;;;8.72
70668;BMP280;58242;51.250;-1.118;2024-01-15T00:31:46;99732.50;;;8.69
70668;BMP280;58242;51.250;-1.118;2024-01-15T00:34:11;99743.31;;;8.64
70668;BMP280;58242;51.250;-1.118;2024-01-15T00:36:37;99731.72;;;8.60
70668;BMP280;58242;51.250;-1.118;2024-01-15T00:39:02;99730.00;;;8.56
70668;BMP280;58242;51.250;-1.118;2024-01-15T00:41:30;99729.09;;;8.52
70668;BMP280;58242;51.250;-1.118;2024-01-15T00:43:56;99716.75;;;8.48
70668;BMP280;58242;51.250;-1.118;2024-01-15T00:46:21;99721.91;;;8.44
70668;BMP280;58242;51.250;-1.118;2024-01-15T00:48:47;99720.22;;;8.40
70668;BMP280;58242;51.250;-1.118;2024-01-15T00:51:12;99716.63;;;8.36
70668;BMP280;58242;51.250;-1.118;2024-01-15T00:53:38;99723.69;;;8.32
70668;BMP280;58242;51.250;-1.118;2024-01-15T00:56:03;99718.19;;;8.29
70668;BMP280;58242;51.250;-1.118;2024-01-15T00:58:28;99716.47;;;8.24
70668;BMP280;58242;51.250;-1.118;2024-01-15T01:00:54;99707.88;;;8.19
70668;BMP280;58242;51.250;-1.118;2024-01-15T01:03:20;99709.28;;;8.17
70668;BMP280;58242;51.250;-1.118;2024-01-15T01:05:45;99703.81;;;8.13
70668;BMP280;58242;51.250;-1.118;2024-01-15T01:08:11;99704.44;;;8.10
70668;BMP280;58242;51.250;-1.118;2024-01-15T01:10:37;99699.75;;;8.07
70668;BMP280;58242;51.250;-1.118;2024-01-15T01:13:02;99693.19;;;8.05
70668;BMP280;58242;51.250;-1.118;2024-01-15T01:15:28;99692.25;;;8.01
70668;BMP280;58242;51.250;-1.118;2024-01-15T01:17:53;99689.09;;;7.99
70668;BMP280;58242;51.250;-1.118;2024-01-15T01:20:18;99687.03;;;7.96
70668;BMP280;58242;51.250;-1.118;2024-01-15T01:22:44;99690.78;;;7.95
70668;BMP280;58242;51.250;-1.118;2024-01-15T01:25:09;99681.72;;;7.96
70668;BMP280;58242;51.250;-1.118;2024-01-15T01:27:35;99681.59;;;8.01
70668;BMP280;58242;51.250;-1.118;2024-01-15T01:30:00;99683.63;;;8.04
70668;BMP280;58242;51.250;-1.118;2024-01-15T01:32:26;99679.72;;;8.10
70668;BMP280;58242;51.250;-1.118;2024-01-15T01:34:51;99679.22;;;8.16
70668;BMP280;58242;51.250;-1.118;2024-01-15T01:37:18;99689.06;;;8.24
70668;BMP280;58242;51.250;-1.118;2024-01-15T01:39:43;99681.38;;;8.31
70668;BMP280;58242;51.250;-1.118;2024-01-15T01:42:09;99676.34;;;8.37
70668;BMP280;58242;51.250;-1.118;2024-01-15T01:44:34;99670.84;;;8.42
70668;BMP280;58242;51.250;-1.118;2024-01-15T01:47:00;99668.81;;;8.48
70668;BMP280;58242;51.250;-1.118;2024-01-15T01:49:27;99671.28;;;8.53
70668;BMP280;58242;51.250;-1.118;2024-01-15T01:51:52;99673.47;;;8.59
70668;BMP280;58242;51.250;-1.118;2024-01-15T01:54:19;99673.75;;;8.66
70668;BMP280;58242;51.250;-1.118;2024-01-15T01:56:47;99667.13;;;8.71
70668;BMP280;58242;51.250;-1.118;2024-01-15T01:59:14;99676.03;;;8.75
70668;BMP280;58242;51.250;-1.118;2024-01-15T02:01:40;99668.66;;;8.81
70668;BMP280;58242;51.250;-1.118;2024-01-15T02:04:05;99674.25;;;8.88
70668;BMP280;58242;51.250;-1.118;2024-01-15T02:06:31;99669.84;;;8.91
70668;BMP280;58242;51.250;-1.118;2024-01-15T02:08:57;99672.34;;;8.96
70668;BMP280;58242;51.250;-1.118;2024-01-15T02:11:22;99656.47;;;9.00
70668;BMP280;58242;51.250;-1.118;2024-01-15T02:13:48;99671.50;;;9.04
70668;BMP280;58242;51.250;-1.118;2024-01-15T02:16:13;99655.97;;;9.06
70668;BMP280;58242;51.250;-1.118;2024-01-15T02:18:45;99663.00;;;9.10
70668;BMP280;58242;51.250;-1.118;2024-01-15T02:21:11;99665.34;;;9.12
70668;BMP280;58242;51.250;-1.118;2024-01-15T02:23:37;99670.34;;;9.13
70668;BMP280;58242;51.250;-1.118;2024-01-15T02:26:03;99673.94;;;9.17
70668;BMP280;58242;51.250;-1.118;2024-01-15T02:28:29;99667.16;;;9.20
70668;BMP280;58242;51.250;-1.118;2024-01-15T02:30:54;99670.31;;;9.22
70668;BMP280;58242;51.250;-1.118;2024-01-15T02:33:20;99669.63;;;9.24
70668;BMP280;58242;51.250;-1.118;2024-01-15T02:35:45;99664.78;;;9.26
70668;BMP280;58242;51.250;-1.118;2024-01-15T02:38:15;99663.03;;;9.30
70668;BMP280;58242;51.250;-1.118;2024-01-15T02:40:41;99664.25;;;9.33
70668;BMP280;58242;51.250;-1.118;2024-01-15T02:43:06;99658.63;;;9.34
70668;BMP280;58242;51.250;-1.118;2024-01-15T02:45:32;99658.28;;;9.36
70668;BMP280;58242;51.250;-1.118;2024-01-15T02:47:57;99663.28;;;9.37
70668;BMP280;58242;51.250;-1.118;2024-01-15T02:50:22;99666.41;;;9.39
70668;BMP280;58242;51.250;-1.118;2024-01-15T02:52:48;99659.19;;;9.39
70668;BMP280;58242;51.250;-1.118;2024-01-15T02:55:13;99664.19;;;9.41
70668;BMP280;58242;51.250;-1.118;2024-01-15T02:57:38;99650.53;;;9.42
70668;BMP280;58242;51.250;-1.118;2024-01-15T03:00:04;99664.66;;;9.43
70668;BMP280;58242;51.250;-1.118;2024-01-15T03:02:30;99662.44;;;9.45
70668;BMP280;58242;51.250;-1.118;2024-01-15T03:04:57;99662.44;;;9.45
70668;BMP280;58242;51.250;-1.118;2024-01-15T03:07:23;99659.78;;;9.45
70668;BMP280;58242;51.250;-1.118;2024-01-15T03:09:48;99652.56;;;9.45
70668;BMP280;58242;51.250;-1.118;2024-01-15T03:12:14;99658.69;;;9.46
70668;BMP280;58242;51.250;-1.118;2024-01-15T03:14:39;99657.91;;;9.45
70668;BMP280;58242;51.250;-1.118;2024-01-15T03:17:04;99656.78;;;9.46
70668;BMP280;58242;51.250;-1.118;2024-01-15T03:19:30;99654.44;;;9.45
70668;BMP280;58242;51.250;-1.118;2024-01-15T03:21:56;99650.22;;;9.44
70668;BMP280;58242;51.250;-1.118;2024-01-15T03:24:22;99651.19;;;9.39
70668;BMP280;58242;51.250;-1.118;2024-01-15T03:26:47;99667.72;;;9.33
70668;BMP280;58242;51.250;-1.118;2024-01-15T03:29:12;99664.00;;;9.26
70668;BMP280;58242;51.250;-1.118;2024-01-15T03:31:37;99666.28;;;9.16
70668;BMP280;58242;51.250;-1.118;2024-01-15T03:34:03;99661.78;;;9.08
70668;BMP280;58242;51.250;-1.118;2024-01-15T03:36:28;99669.47;;;9.01
70668;BMP280;58242;51.250;-1.118;2024-01-15T03:38:54;99673.75;;;8.94
70668;BMP280;58242;51.250;-1.118;2024-01-15T03:41:19;99681.16;;;8.88
70668;BMP280;58242;51.250;-1.118;2024-01-15T03:43:45;99677.88;;;8.83
70668;BMP280;58242;51.250;-1.118;2024-01-15T03:46:10;99675.09;;;8.80
70668;BMP280;58242;51.250;-1.118;2024-01-15T03:48:36;99672.72;;;8.78
70668;BMP280;58242;51.250;-1.118;2024-01-15T03:51:01;99670.41;;;8.77
70668;BMP280;58242;51.250;-1.118;2024-01-15T03:53:26;99669.91;;;8.75
70668;BMP280;58242;51.250;-1.118;2024-01-15T03:55:52;99671.50;;;8.76
70668;BMP280;58242;51.250;-1.118;2024-01-15T03:58:17;99666.94;;;8.76
70668;BMP280;58242;51.250;-1.118;2024-01-15T04:00:43;99671.19;;;8.77
70668;BMP280;58242;51.250;-1.118;2024-01-15T04:03:08;99667.09;;;8.80
70668;BMP280;58242;51.250;-1.118;2024-01-15T04:05:34;99657.22;;;8.80
70668;BMP280;58242;51.250;-1.118;2024-01-15T04:07:59;99655.00;;;8.82
70668;BMP280;58242;51.250;-1.118;2024-01-15T04:10:25;99652.00;;;8.84
70668;BMP280;58242;51.250;-1.118;2024-01-15T04:12:50;99656.69;;;8.87
70668;BMP280;58242;51.250;-1.118;2024-01-15T04:15:16;99650.28;;;8.88
70668;BMP280;58242;51.250;-1.118;2024-01-15T04:17:41;99659.06;;;8.88
70668;BMP280;58242;51.250;-1.118;2024-01-15T04:20:07;99662.16;;;8.90
70668;BMP280;58242;51.250;-1.118;2024-01-15T04:22:35;99651.97;;;8.92
70668;BMP280;58242;51.250;-1.118;2024-01-15T04:25:01;99647.88;;;8.94
70668;BMP280;58242;51.250;-1.118;2024-01-15T04:27:26;99648.47;;;9.00
70668;BMP280;58242;51.250;-1.118;2024-01-15T04:29:52;99647.38;;;9.01
70668;BMP280;58242;51.250;-1.118;2024-01-15T04:32:18;99641.41;;;9.04
70668;BMP280;58242;51.250;-1.118;2024-01-15T04:34:43;99634.63;;;9.06
70668;BMP280;58242;51.250;-1.118;2024-01-15T04:37:09;99638.88;;;9.07
70668;BMP280;58242;51.250;-1.118;2024-01-15T04:39:34;99635.56;;;9.10
70668;BMP280;58242;51.250;-1.118;2024-01-15T04:41:59;99638.69;;;9.12
70668;BMP280;58242;51.250;-1.118;2024-01-15T04:44:25;99632.72;;;9.15
70668;BMP280;58242;51.250;-1.118;2024-01-15T04:46:50;99627.81;;;9.17
70668;BMP280;58242;51.250;-1.118;2024-01-15T04:49:15;99622.63;;;9.20
70668;BMP280;58242;51.250;-1.118;2024-01-15T04:51:41;99627.63;;;9.22
70668;BMP280;58242;51.250;-1.118;2024-01-15T04:54:06;99624.66;;;9.23
70668;BMP280;58242;51.250;-1.118;2024-01-15T04:56:31;99617.41;;;9.23
70668;BMP280;58242;51.250;-1.118;2024-01-15T04:58:57;99623.53;;;9.24
70668;BMP280;58242;51.250;-1.118;2024-01-15T05:01:22;99622.75;;;9.23
70668;BMP280;58242;51.250;-1.118;2024-01-15T05:03:47;99629.66;;;9.24
70668;BMP280;58242;51.250;-1.118;2024-01-15T05:06:14;99624.66;;;9.23
70668;BMP280;58242;51.250;-1.118;2024-01-15T05:08:40;99631.53;;;9.24
70668;BMP280;58242;51.250;-1.118;2024-01-15T05:11:05;99625.41;;;9.23
70668;BMP280;58242;51.250;-1.118;2024-01-15T05:13:30;99626.53;;;9.23
70668;BMP280;58242;51.250;-1.118;2024-01-15T05:15:56;99624.97;;;9.22
70668;BMP280;58242;51.250;-1.118;2024-01-15T05:18:21;99629.50;;;9.21
70668;BMP280;58242;51.250;-1.118;2024-01-15T05:20:47;99632.50;;;9.20
70668;BMP280;58242;51.250;-1.118;2024-01-15T05:23:12;99627.50;;;9.18
70668;BMP280;58242;51.250;-1.118;2024-01-15T05:25:37;99635.03;;;9.16
70668;BMP280;58242;51.250;-1.118;2024-01-15T05:28:03;99631.44;;;9.12
70668;BMP280;58242;51.250;-1.118;2024-01-15T05:30:28;99637.78;;;9.08
70668;BMP280;58242;51.250;-1.118;2024-01-15T05:32:54;99635.94;;;9.00
70668;BMP280;58242;51.250;-1.118;2024-01-15T05:35:19;99629.09;;;8.91
70668;BMP280;58242;51.250;-1.118;2024-01-15T05:37:45;99637.13;;;8.83
70668;BMP280;58242;51.250;-1.118;2024-01-15T05:40:11;99642.50;;;8.74
70668;BMP280;58242;51.250;-1.118;2024-01-15T05:42:38;99646.31;;;8.65
70668;BMP280;58242;51.250;-1.118;2024-01-15T05:45:04;99641.81;;;8.57
70668;BMP280;58242;51.250;-1.118;2024-01-15T05:47:30;99654.38;;;8.49
70668;BMP280;58242;51.250;-1.118;2024-01-15T05:49:56;99646.41;;;8.40
70668;BMP280;58242;51.250;-1.118;2024-01-15T05:52:21;99653.31;;;8.33
70668;BMP280;58242;51.250;-1.118;2024-01-15T05:54:47;99660.56;;;8.24
70668;BMP280;58242;51.250;-1.118;2024-01-15T05:57:12;99664.03;;;8.17
70668;BMP280;58242;51.250;-1.118;2024-01-15T05:59:38;99665.63;;;8.09
70668;BMP280;58242;51.250;-1.118;2024-01-15T06:02:03;99672.19;;;8.03
70668;BMP280;58242;51.250;-1.118;2024-01-15T06:04:29;99671.91;;;7.97
70668;BMP280;58242;51.250;-1.118;2024-01-15T06:06:54;99676.59;;;7.91
70668;BMP280;58242;51.250;-1.118;2024-01-15T06:09:19;99675.16;;;7.85
70668;BMP280;58242;51.250;-1.118;2024-01-15T06:11:45;99669.22;;;7.80
70668;BMP280;58242;51.250;-1.118;2024-01-15T06:14:10;99677.38;;;7.75
70668;BMP280;58242;51.250;-1.118;2024-01-15T06:16:35;99681.28;;;7.69
70668;BMP280;58242;51.250;-1.118;2024-01-15T06:19:01;99679.53;;;7.65
70668;BMP280;58242;51.250;-1.118;2024-01-15T06:21:26;99686.13;;;7.59
70668;BMP280;58242;51.250;-1.118;2024-01-15T06:23:51;99690.50;;;7.55
70668;BMP280;58242;51.250;-1.118;2024-01-15T06:26:17;99701.78;;;7.52
70668;BMP280;58242;51.250;-1.118;2024-01-15T06:28:43;99690.97;;;7.49
70668;BMP280;58242;51.250;-1.118;2024-01-15T06:31:08;99693.50;;;7.46
70668;BMP280;58242;51.250;-1.118;2024-01-15T06:33:33;99694.09;;;7.43
70668;BMP280;58242;51.250;-1.118;2024-01-15T06:35:59;99701.13;;;7.39
70668;BMP280;58242;51.250;-1.118;2024-01-15T06:38:24;99695.66;;;7.35
70668;BMP280;58242;51.250;-1.118;2024-01-15T06:40:50;99691.25;;;7.31
70668;BMP280;58242;51.250;-1.118;2024-01-15T06:43:17;99686.09;;;7.26
70668;BMP280;58242;51.250;-1.118;2024-01-15T06:45:43;99692.06;;;7.23
70668;BMP280;58242;51.250;-1.118;2024-01-15T06:48:08;99692.66;;;7.20
70668;BMP280;58242;51.250;-1.118;2024-01-15T06:50:34;99695.16;;;7.17
70668;BMP280;58242;51.250;-1.118;2024-01-15T06:52:59;99697.66;;;7.14
70668;BMP280;58242;51.250;-1.118;2024-01-15T06:55:26;99696.69;;;7.10
70668;BMP280;58242;51.250;-1.118;2024-01-15T06:57:53;99683.25;;;7.06
70668;BMP280;58242;51.250;-1.118;2024-01-15T07:00:18;99693.72;;;7.03
70668;BMP280;58242;51.250;-1.118;2024-01-15T07:02:45;99695.41;;;6.99
70668;BMP280;58242;51.250;-1.118;2024-01-15T07:05:10;99693.38;;;6.96
70668;BMP280;58242;51.250;-1.118;2024-01-15T07:07:36;99691.66;;;6.92
70668;BMP280;58242;51.250;-1.118;2024-01-15T07:10:01;99688.84;;;6.88
70668;BMP280;58242;51.250;-1.118;2024-01-15T07:12:28;99684.16;;;6.85
70668;BMP280;58242;51.250;-1.118;2024-01-15T07:14:54;99683.19;;;6.82
70668;BMP280;58242;51.250;-1.118;2024-01-15T07:17:20;99687.56;;;6.78
70668;BMP280;58242;51.250;-1.118;2024-01-15T07:19:45;99690.03;;;6.74
70668;BMP280;58242;51.250;-1.118;2024-01-15T07:22:11;99698.59;;;6.71
70668;BMP280;58242;51.250;-1.118;2024-01-15T07:24:37;99702.97;;;6.67
70668;BMP280;58242;51.250;-1.118;2024-01-15T07:27:02;99700.13;;;6.64
70668;BMP280;58242;51.250;-1.118;2024-01-15T07:29:30;99713.25;;;6.61
70668;BMP280;58242;51.250;-1.118;2024-01-15T07:31:55;99700.59;;;6.58
70668;BMP280;58242;51.250;-1.118;2024-01-15T07:34:21;99700.41;;;6.54
70668;BMP280;58242;51.250;-1.118;2024-01-15T07:36:47;99704.47;;;6.52
70668;BMP280;58242;51.250;-1.118;2024-01-15T07:39:12;99708.84;;;6.48
70668;BMP280;58242;51.250;-1.118;2024-01-15T07:41:39;99706.75;;;6.45
70668;BMP280;58242;51.250;-1.118;2024-01-15T07:44:05;99705.50;;;6.43
70668;BMP280;58242;51.250;-1.118;2024-01-15T07:46:30;99711.44;;;6.40
70668;BMP280;58242;51.250;-1.118;2024-01-15T07:48:56;99717.34;;;6.37
70668;BMP280;58242;51.250;-1.118;2024-01-15T07:51:23;99714.50;;;6.33
70668;BMP280;58242;51.250;-1.118;2024-01-15T07:53:49;99714.03;;;6.32
70668;BMP280;58242;51.250;-1.118;2024-01-15T07:56:14;99712.00;;;6.29
70668;BMP280;58242;51.250;-1.118;2024-01-15T07:58:40;99712.28;;;6.27
70668;BMP280;58242;51.250;-1.118;2024-01-15T08:01:05;99718.22;;;6.24
70668;BMP280;58242;51.250;-1.118;2024-01-15T08:03:31;99723.03;;;6.22
70668;BMP280;58242;51.250;-1.118;2024-01-15T08:05:57;99722.56;;;6.20
70668;BMP280;58242;51.250;-1.118;2024-01-15T08:08:24;99729.25;;;6.18
70668;BMP280;58242;51.250;-1.118;2024-01-15T08:10:50;99739.88;;;6.18
70668;BMP280;58242;51.250;-1.118;2024-01-15T08:13:15;99736.72;;;6.16
70668;BMP280;58242;51.250;-1.118;2024-01-15T08:15:41;99735.94;;;6.15
70668;BMP280;58242;51.250;-1.118;2024-01-15T08:18:06;99746.88;;;6.14
70668;BMP280;58242;51.250;-1.118;2024-01-15T08:20:32;99755.59;;;6.14
70668;BMP280;58242;51.250;-1.118;2024-01-15T08:22:57;99754.03;;;6.14
70668;BMP280;58242;51.250;-1.118;2024-01-15T08:25:23;99760.91;;;6.14
70668;BMP280;58242;51.250;-1.118;2024-01-15T08:27:49;99758.25;;;6.14
70668;BMP280;58242;51.250;-1.118;2024-01-15T08:30:14;99760.91;;;6.14
70668;BMP280;58242;51.250;-1.118;2024-01-15T08:32:39;99760.91;;;6.14
70668;BMP280;58242;51.250;-1.118;2024-01-15T08:35:08;99761.41;;;6.16
70668;BMP280;58242;51.250;-1.118;2024-01-15T08:37:34;99769.53;;;6.20
70668;BMP280;58242;51.250;-1.118;2024-01-15T08:39:59;99767.25;;;6.27
70668;BMP280;58242;51.250;-1.118;2024-01-15T08:42:25;99782.63;;;6.38
70668;BMP280;58242;51.250;-1.118;2024-01-15T08:44:50;99789.84;;;6.46
70668;BMP280;58242;51.250;-1.118;2024-01-15T08:47:16;99786.16;;;6.55
70668;BMP280;58242;51.250;-1.118;2024-01-15T08:49:42;99784.66;;;6.62
70668;BMP280;58242;51.250;-1.118;2024-01-15T08:52:09;99785.00;;;6.69
70668;BMP280;58242;51.250;-1.118;2024-01-15T08:54:34;99793.81;;;6.78
70668;BMP280;58242;51.250;-1.118;2024-01-15T08:57:00;99787.88;;;6.81
70668;BMP280;58242;51.250;-1.118;2024-01-15T08:59:25;99787.75;;;6.85
70668;BMP280;58242;51.250;-1.118;2024-01-15T09:01:52;99784.03;;;6.95
70668;BMP280;58242;51.250;-1.118;2024-01-15T09:04:17;99783.03;;;7.12
70668;BMP280;58242;51.250;-1.118;2024-01-15T09:06:46;99793.38;;;7.30
70668;BMP280;58242;51.250;-1.118;2024-01-15T09:09:14;99798.13;;;7.50
70668;BMP280;58242;51.250;-1.118;2024-01-15T09:11:40;99795.34;;;7.71
70668;BMP280;58242;51.250;-1.118;2024-01-15T09:14:06;99802.56;;;7.95
70668;BMP280;58242;51.250;-1.118;2024-01-15T09:16:31;99792.13;;;8.23
70668;BMP280;58242;51.250;-1.118;2024-01-15T09:18:57;99791.63;;;8.46
70668;BMP280;58242;51.250;-1.118;2024-01-15T09:21:23;99800.84;;;8.65
70668;BMP280;58242;51.250;-1.118;2024-01-15T09:23:50;99805.22;;;8.78
70668;BMP280;58242;51.250;-1.118;2024-01-15T09:26:15;99806.59;;;8.84
70668;BMP280;58242;51.250;-1.118;2024-01-15T09:28:40;99807.69;;;8.83
70668;BMP280;58242;51.250;-1.118;2024-01-15T09:31:06;99806.44;;;8.80
70668;BMP280;58242;51.250;-1.118;2024-01-15T09:33:31;99813.22;;;8.78
70668;BMP280;58242;51.250;-1.118;2024-01-15T09:35:57;99810.69;;;8.81
70668;BMP280;58242;51.250;-1.118;2024-01-15T09:38:22;99815.63;;;8.99
70668;BMP280;58242;51.250;-1.118;2024-01-15T09:40:49;99812.09;;;9.23
70668;BMP280;58242;51.250;-1.118;2024-01-15T09:43:16;99807.09;;;9.50
70668;BMP280;58242;51.250;-1.118;2024-01-15T09:45:42;99811.03;;;9.73
70668;BMP280;58242;51.250;-1.118;2024-01-15T09:48:08;99798.75;;;9.80
70668;BMP280;58242;51.250;-1.118;2024-01-15T09:50:34;99791.69;;;9.84
70668;BMP280;58242;51.250;-1.118;2024-01-15T09:53:00;99791.09;;;9.78
70668;BMP280;58242;51.250;-1.118;2024-01-15T09:55:27;99789.09;;;9.67
70668;BMP280;58242;51.250;-1.118;2024-01-15T09:57:55;99795.84;;;9.65
70668;BMP280;58242;51.250;-1.118;2024-01-15T10:00:21;99798.94;;;9.83
70668;BMP280;58242;51.250;-1.118;2024-01-15T10:02:47;99804.53;;;10.10
70668;BMP280;58242;51.250;-1.118;2024-01-15T10:05:12;99809.97;;;10.33
70668;BMP280;58242;51.250;-1.118;2024-01-15T10:07:38;99819.66;;;10.58
70668;BMP280;58242;51.250;-1.118;2024-01-15T10:10:05;99817.75;;;10.90
70668;BMP280;58242;51.250;-1.118;2024-01-15T10:12:31;99815.41;;;11.31
70668;BMP280;58242;51.250;-1.118;2024-01-15T10:14:56;99823.44;;;11.78
70668;BMP280;58242;51.250;-1.118;2024-01-15T10:17:21;99821.53;;;12.29
70668;BMP280;58242;51.250;-1.118;2024-01-15T10:19:47;99831.28;;;12.86
70668;BMP280;58242;51.250;-1.118;2024-01-15T10:22:14;99842.31;;;13.57
70668;BMP280;58242;51.250;-1.118;2024-01-15T10:24:40;99831.81;;;14.31
70668;BMP280;58242;51.250;-1.118;2024-01-15T10:27:09;99837.91;;;15.02
70668;BMP280;58242;51.250;-1.118;2024-01-15T10:29:35;99829.13;;;15.48
70668;BMP280;58242;51.250;-1.118;2024-01-15T10:32:00;99822.31;;;15.79
70668;BMP280;58242;51.250;-1.118;2024-01-15T10:34:26;99825.50;;;15.85
70668;BMP280;58242;51.250;-1.118;2024-01-15T10:36:52;99820.19;;;15.66
70668;BMP280;58242;51.250;-1.118;2024-01-15T10:39:26;99829.72;;;15.39
70668;BMP280;58242;51.250;-1.118;2024-01-15T10:41:51;99832.13;;;15.00
70668;BMP280;58242;51.250;-1.118;2024-01-15T10:44:17;99825.88;;;14.59
70668;BMP280;58242;51.250;-1.118;2024-01-15T10:46:45;99840.00;;;14.19
70668;BMP280;58242;51.250;-1.118;2024-01-15T10:49:11;99831.41;;;13.80
70668;BMP280;58242;51.250;-1.118;2024-01-15T10:51:37;99833.94;;;13.43
70668;BMP280;58242;51.250;-1.118;2024-01-15T10:54:02;99834.53;;;13.07
70668;BMP280;58242;51.250;-1.118;2024-01-15T10:56:30;99835.16;;;12.74
70668;BMP280;58242;51.250;-1.118;2024-01-15T10:58:56;99834.91;;;12.40
70668;BMP280;58242;51.250;-1.118;2024-01-15T11:01:23;99844.94;;;12.16
70668;BMP280;58242;51.250;-1.118;2024-01-15T11:03:49;99839.94;;;11.92
70668;BMP280;58242;51.250;-1.118;2024-01-15T11:06:18;99838.94;;;11.73
70668;BMP280;58242;51.250;-1.118;2024-01-15T11:08:52;99844.84;;;11.55
70668;BMP280;58242;51.250;-1.118;2024-01-15T11:11:18;99833.25;;;11.39
70668;BMP280;58242;51.250;-1.118;2024-01-15T11:13:46;99843.47;;;11.26
70668;BMP280;58242;51.250;-1.118;2024-01-15T11:16:13;99841.44;;;11.11
70668;BMP280;58242;51.250;-1.118;2024-01-15T11:18:48;99843.31;;;10.99
70668;BMP280;58242;51.250;-1.118;2024-01-15T11:21:27;99829.13;;;10.87
70668;BMP280;58242;51.250;-1.118;2024-01-15T11:23:57;99834.41;;;10.75
70668;BMP280;58242;51.250;-1.118;2024-01-15T11:26:43;99835.84;;;10.61
70668;BMP280;58242;51.250;-1.118;2024-01-15T11:29:30;99833.28;;;10.44
70668;BMP280;58242;51.250;-1.118;2024-01-15T11:32:06;99827.69;;;10.38
70668;BMP280;58242;51.250;-1.118;2024-01-15T11:37:15;99830.44;;;10.29
70668;BMP280;58242;51.250;-1.118;2024-01-15T11:39:43;99832.59;;;10.36
70668;BMP280;58242;51.250;-1.118;2024-01-15T11:42:10;99834.75;;;10.42
70668;BMP280;58242;51.250;-1.118;2024-01-15T11:44:37;99844.09;;;10.48
70668;BMP280;58242;51.250;-1.118;2024-01-15T11:47:04;99847.56;;;10.48
70668;BMP280;58242;51.250;-1.118;2024-01-15T11:50:01;99852.66;;;10.42
70668;BMP280;58242;51.250;-1.118;2024-01-15T11:52:35;99846.09;;;10.39
70668;BMP280;58242;51.250;-1.118;2024-01-15T11:57:50;99848.50;;;10.32
70668;BMP280;58242;51.250;-1.118;2024-01-15T12:00:16;99846.81;;;10.28
70668;BMP280;58242;51.250;-1.118;2024-01-15T12:02:46;99849.22;;;10.21
70668;BMP280;58242;51.250;-1.118;2024-01-15T12:05:16;99843.88;;;10.21
70668;BMP280;58242;51.250;-1.118;2024-01-15T12:07:42;99848.22;;;10.25
70668;BMP280;58242;51.250;-1.118;2024-01-15T12:10:16;99856.19;;;10.34
70668;BMP280;58242;51.250;-1.118;2024-01-15T12:15:14;99873.75;;;10.75
70668;BMP280;58242;51.250;-1.118;2024-01-15T12:17:39;99870.19;;;11.14
70668;BMP280;58242;51.250;-1.118;2024-01-15T12:20:05;99875.31;;;11.50
70668;BMP280;58242;51.250;-1.118;2024-01-15T12:22:31;99879.69;;;11.78
70668;BMP280;58242;51.250;-1.118;2024-01-15T12:24:56;99871.16;;;11.99
70668;BMP280;58242;51.250;-1.118;2024-01-15T12:27:23;99875.50;;;12.15
70668;BMP280;58242;51.250;-1.118;2024-01-15T12:29:49;99863.66;;;12.28
70668;BMP280;58242;51.250;-1.118;2024-01-15T12:32:14;99875.69;;;12.34
70668;BMP280;58242;51.250;-1.118;2024-01-15T12:34:39;99872.91;;;12.31
70668;BMP280;58242;51.250;-1.118;2024-01-15T12:37:07;99865.09;;;12.26
70668;BMP280;58242;51.250;-1.118;2024-01-15T12:39:34;99864.56;;;12.20
70668;BMP280;58242;51.250;-1.118;2024-01-15T12:41:59;99862.44;;;12.14
70668;BMP280;58242;51.250;-1.118;2024-01-15T12:44:25;99851.50;;;12.07
70668;BMP280;58242;51.250;-1.118;2024-01-15T12:46:51;99852.66;;;11.95
70668;BMP280;58242;51.250;-1.118;2024-01-15T12:49:17;99849.09;;;11.79
70668;BMP280;58242;51.250;-1.118;2024-01-15T12:51:42;99849.31;;;11.63
70668;BMP280;58242;51.250;-1.118;2024-01-15T12:54:07;99852.88;;;11.43
70668;BMP280;58242;51.250;-1.118;2024-01-15T12:56:33;99856.06;;;11.25
70668;BMP280;58242;51.250;-1.118;2024-01-15T12:58:58;99850.09;;;11.08
70668;BMP280;58242;51.250;-1.118;2024-01-15T13:01:24;99855.78;;;10.95
70668;BMP280;58242;51.250;-1.118;2024-01-15T13:03:49;99859.97;;;10.84
70668;BMP280;58242;51.250;-1.118;2024-01-15T13:06:15;99864.94;;;10.74
70668;BMP280;58242;51.250;-1.118;2024-01-15T13:08:40;99856.91;;;10.62
70668;BMP280;58242;51.250;-1.118;2024-01-15T13:11:05;99854.72;;;10.56
70668;BMP280;58242;51.250;-1.118;2024-01-15T13:13:31;99859.94;;;10.53
70668;BMP280;58242;51.250;-1.118;2024-01-15T13:15:59;99863.94;;;10.47
70668;BMP280;58242;51.250;-1.118;2024-01-15T13:18:25;99853.44;;;10.42
70668;BMP280;58242;51.250;-1.118;2024-01-15T13:20:50;99860.22;;;10.40
70668;BMP280;58242;51.250;-1.118;2024-01-15T13:23:16;99860.38;;;10.43
70668;BMP280;58242;51.250;-1.118;2024-01-15T13:25:41;99865.63;;;10.51
70668;BMP280;58242;51.250;-1.118;2024-01-15T13:28:07;99852.59;;;10.70
70668;BMP280;58242;51.250;-1.118;2024-01-15T13:30:33;99860.66;;;10.93
70668;BMP280;58242;51.250;-1.118;2024-01-15T13:32:58;99851.78;;;11.12
70668;BMP280;58242;51.250;-1.118;2024-01-15T13:35:29;99846.41;;;11.32
70668;BMP280;58242;51.250;-1.118;2024-01-15T13:37:54;99847.53;;;11.55
70668;BMP280;58242;51.250;-1.118;2024-01-15T13:40:19;99834.47;;;11.77
70668;BMP280;58242;51.250;-1.118;2024-01-15T13:42:45;99829.69;;;11.94
70668;BMP280;58242;51.250;-1.118;2024-01-15T13:45:11;99834.66;;;12.07
70668;BMP280;58242;51.250;-1.118;2024-01-15T13:47:39;99828.06;;;12.16
70668;BMP280;58242;51.250;-1.118;2024-01-15T13:50:06;99825.59;;;12.23
70668;BMP280;58242;51.250;-1.118;2024-01-15T13:52:31;99829.06;;;12.23
70668;BMP280;58242;51.250;-1.118;2024-01-15T13:54:57;99821.59;;;12.17
70668;BMP280;58242;51.250;-1.118;2024-01-15T13:57:22;99833.88;;;12.06
70668;BMP280;58242;51.250;-1.118;2024-01-15T13:59:48;99818.84;;;11.90
70668;BMP280;58242;51.250;-1.118;2024-01-15T14:02:14;99828.34;;;11.76
70668;BMP280;58242;51.250;-1.118;2024-01-15T14:04:40;99826.34;;;11.62
70668;BMP280;58242;51.250;-1.118;2024-01-15T14:07:06;99822.91;;;11.49